createdAt,value
2023-03-01T00:00:29.478Z,97555.81
2023-03-01T00:01:32.104Z,97556.38
2023-03-01T00:02:34.031Z,97560.22
2023-03-01T00:03:36.153Z,97553.22
2023-03-01T00:04:37.954Z,97548.66
2023-03-01T00:05:45.101Z,97552.72
2023-03-01T00:06:47.753Z,97547.22
2023-03-01T00:07:49.593Z,97552.91
2023-03-01T00:08:51.734Z,97536.56
2023-03-01T00:09:53.501Z,97546.81
2023-03-01T00:11:02.356Z,97548.47
2023-03-01T00:12:04.353Z,97549.97
2023-03-01T00:13:06.530Z,97542.84
2023-03-01T00:14:08.353Z,97547.88
2023-03-01T00:15:10.155Z,97549.16
2023-03-01T00:16:14.329Z,97536.56
2023-03-01T00:17:16.200Z,97540.88
2023-03-01T00:18:17.946Z,97540.06
2023-03-01T00:19:21.186Z,97547.09
2023-03-01T00:20:22.999Z,97533.78
2023-03-01T00:21:25.345Z,97535.44
2023-03-01T00:22:29.433Z,97536.50
2023-03-01T00:23:31.350Z,97535.66
2023-03-01T00:24:33.204Z,97531.72
2023-03-01T00:25:35.031Z,97532.34
2023-03-01T00:26:36.811Z,97539.38
2023-03-01T00:27:38.586Z,97532.34
2023-03-01T00:28:40.322Z,97527.91
2023-03-01T00:29:42.123Z,97536.31
2023-03-01T00:30:44.045Z,97536.84
2023-03-01T00:31:45.887Z,97539.19
2023-03-01T00:32:47.779Z,97543.16
2023-03-01T00:33:49.654Z,97543.03
2023-03-01T00:34:56.820Z,97541.16
2023-03-01T00:36:01.838Z,97539.88
2023-03-01T00:37:06.622Z,97538.41
2023-03-01T00:38:08.473Z,97539.13
2023-03-01T00:39:14.893Z,97539.28
2023-03-01T00:40:17.587Z,97541.47
2023-03-01T00:41:20.404Z,97536.34
2023-03-01T00:42:23.448Z,97535.03
2023-03-01T00:43:25.250Z,97538.19
2023-03-01T00:44:27.050Z,97536.16
2023-03-01T00:45:28.973Z,97532.09
2023-03-01T00:46:32.023Z,97526.16
2023-03-01T00:47:33.989Z,97528.72
2023-03-01T00:48:36.116Z,97531.97
2023-03-01T00:49:37.953Z,97525.78
2023-03-01T00:50:40.102Z,97523.78
2023-03-01T00:51:42.836Z,97527.53
2023-03-01T00:52:45.123Z,97527.72
2023-03-01T00:53:47.018Z,97534.25
2023-03-01T00:54:48.904Z,97532.19
2023-03-01T00:55:50.705Z,97527.28
2023-03-01T00:56:52.566Z,97530.22
2023-03-01T00:57:54.420Z,97523.56
2023-03-01T00:58:56.134Z,97516.00
2023-03-01T00:59:58.044Z,97525.88
2023-03-01T01:01:00.025Z,97528.09
2023-03-01T01:02:01.827Z,97518.75
2023-03-01T01:03:03.808Z,97522.41
2023-03-01T01:04:07.916Z,97518.66
2023-03-01T01:05:10.420Z,97518.97
2023-03-01T01:06:16.266Z,97520.34
2023-03-01T01:07:18.553Z,97525.25
2023-03-01T01:08:21.484Z,97522.94
2023-03-01T01:09:23.324Z,97521.06
2023-03-01T01:10:25.175Z,97521.75
2023-03-01T01:11:28.218Z,97512.31
2023-03-01T01:12:30.052Z,97511.25
2023-03-01T01:13:31.839Z,97513.69
2023-03-01T01:14:33.719Z,97512.16
2023-03-01T01:15:36.139Z,97506.22
2023-03-01T01:16:38.008Z,97507.72
2023-03-01T01:17:39.884Z,97507.72
2023-03-01T01:18:41.803Z,97509.38
2023-03-01T01:19:43.796Z,97506.13
2023-03-01T01:20:45.644Z,97500.31
2023-03-01T01:21:47.976Z,97495.34
2023-03-01T01:22:49.809Z,97502.03
2023-03-01T01:23:51.743Z,97493.19
2023-03-01T01:24:53.552Z,97494.56
2023-03-01T01:25:55.389Z,97500.38
2023-03-01T01:26:57.423Z,97493.06
2023-03-01T01:27:59.210Z,97490.63
2023-03-01T01:29:01.573Z,97497.81
2023-03-01T01:30:04.029Z,97493.97
2023-03-01T01:31:06.138Z,97502.59
2023-03-01T01:32:08.083Z,97493.06
2023-03-01T01:33:10.004Z,97494.84
2023-03-01T01:34:15.076Z,97494.03
2023-03-01T01:35:16.846Z,97488.06
2023-03-01T01:36:18.709Z,97489.72
2023-03-01T01:37:20.529Z,97485.97
2023-03-01T01:38:22.910Z,97483.97
2023-03-01T01:39:24.788Z,97475.22
2023-03-01T01:40:26.713Z,97483.38
2023-03-01T01:41:29.581Z,97480.66
2023-03-01T01:42:31.638Z,97479.06
2023-03-01T01:43:38.175Z,97472.78
2023-03-01T01:44:41.395Z,97476.16
2023-03-01T01:45:43.206Z,97473.84
2023-03-01T01:46:44.986Z,97472.34
2023-03-01T01:47:49.813Z,97468.72
2023-03-01T01:48:55.604Z,97472.66
2023-03-01T01:49:57.821Z,97470.91
2023-03-01T01:51:01.897Z,97473.25
2023-03-01T01:52:07.394Z,97465.56
2023-03-01T01:53:15.227Z,97466.84
2023-03-01T01:54:20.195Z,97466.72
2023-03-01T01:55:27.151Z,97471.16
2023-03-01T01:56:30.421Z,97464.50
2023-03-01T01:57:37.322Z,97470.91
2023-03-01T01:58:39.676Z,97473.13
2023-03-01T01:59:44.134Z,97475.31
2023-03-01T02:00:46.017Z,97476.81
2023-03-01T02:01:47.833Z,97474.03
2023-03-01T02:02:53.158Z,97476.59
2023-03-01T02:03:55.158Z,97477.63
2023-03-01T02:05:05.219Z,97477.06
2023-03-01T02:06:13.122Z,97476.13
2023-03-01T02:07:19.889Z,97475.44
2023-03-01T02:08:22.938Z,97481.75
2023-03-01T02:09:25.113Z,97477.09
2023-03-01T02:10:28.389Z,97474.91
2023-03-01T02:11:31.551Z,97467.09
2023-03-01T02:12:34.055Z,97471.28
2023-03-01T02:13:36.337Z,97470.47
2023-03-01T02:14:38.148Z,97469.41
2023-03-01T02:15:41.728Z,97470.38
2023-03-01T02:16:44.111Z,97462.56
2023-03-01T02:17:46.208Z,97461.88
2023-03-01T02:18:48.342Z,97458.63
2023-03-01T02:19:55.693Z,97462.47
2023-03-01T02:21:03.460Z,97465.63
2023-03-01T02:22:15.784Z,97462.03
2023-03-01T02:23:17.616Z,97460.41
2023-03-01T02:24:33.674Z,97460.19
2023-03-01T02:25:35.514Z,97458.53
2023-03-01T02:26:51.327Z,97457.00
2023-03-01T02:27:53.075Z,97462.94
2023-03-01T02:28:55.005Z,97452.09
2023-03-01T02:29:57.753Z,97457.13
2023-03-01T02:31:18.338Z,97461.28
2023-03-01T02:32:26.448Z,97460.81
2023-03-01T02:33:28.277Z,97461.75
2023-03-01T02:34:32.471Z,97461.88
2023-03-01T02:35:39.458Z,97456.16
2023-03-01T02:36:47.511Z,97457.56
2023-03-01T02:37:49.643Z,97451.25
2023-03-01T02:38:53.016Z,97458.72
2023-03-01T02:39:59.567Z,97451.94
2023-03-01T02:41:03.292Z,97452.22
2023-03-01T02:42:05.891Z,97459.31
2023-03-01T02:43:09.588Z,97449.44
2023-03-01T02:44:11.840Z,97453.84
2023-03-01T02:45:15.309Z,97456.28
2023-03-01T02:46:23.476Z,97443.59
2023-03-01T02:47:25.398Z,97447.09
2023-03-01T02:48:27.169Z,97448.47
2023-03-01T02:49:30.419Z,97440.44
2023-03-01T02:50:32.218Z,97441.00
2023-03-01T02:51:34.019Z,97442.88
2023-03-01T02:52:48.164Z,97437.19
2023-03-01T02:53:49.961Z,97437.63
2023-03-01T02:55:11.836Z,97437.78
2023-03-01T02:56:14.785Z,97435.81
2023-03-01T02:57:16.809Z,97436.66
2023-03-01T02:58:18.824Z,97435.16
2023-03-01T02:59:26.052Z,97435.03
2023-03-01T03:00:30.200Z,97431.91
2023-03-01T03:01:40.829Z,97428.75
2023-03-01T03:02:42.718Z,97433.28
2023-03-01T03:03:44.554Z,97432.47
2023-03-01T03:04:46.458Z,97436.06
2023-03-01T03:05:49.568Z,97430.84
2023-03-01T03:06:52.271Z,97423.41
2023-03-01T03:07:54.706Z,97427.81
2023-03-01T03:08:56.498Z,97424.78
2023-03-01T03:09:58.371Z,97427.94
2023-03-01T03:11:00.110Z,97427.81
2023-03-01T03:12:01.854Z,97425.84
2023-03-01T03:13:05.042Z,97420.03
2023-03-01T03:14:07.062Z,97425.47
2023-03-01T03:15:10.082Z,97426.16
2023-03-01T03:16:11.837Z,97414.69
2023-03-01T03:17:13.651Z,97422.69
2023-03-01T03:18:16.918Z,97418.97
2023-03-01T03:19:19.227Z,97417.91
2023-03-01T03:20:22.982Z,97424.09
2023-03-01T03:21:24.705Z,97419.19
2023-03-01T03:22:26.529Z,97415.00
2023-03-01T03:23:28.424Z,97416.41
2023-03-01T03:24:39.183Z,97420.94
2023-03-01T03:25:41.124Z,97424.06
2023-03-01T03:26:42.989Z,97413.38
2023-03-01T03:27:46.000Z,97418.03
2023-03-01T03:28:47.998Z,97415.94
2023-03-01T03:29:49.844Z,97418.81
2023-03-01T03:30:51.820Z,97419.41
2023-03-01T03:31:53.699Z,97417.53
2023-03-01T03:32:55.682Z,97418.56
2023-03-01T03:33:58.031Z,97422.88
2023-03-01T03:34:59.793Z,97417.06
2023-03-01T03:36:01.622Z,97414.06
2023-03-01T03:37:03.558Z,97414.75
2023-03-01T03:38:16.620Z,97424.75
2023-03-01T03:39:20.617Z,97414.88
2023-03-01T03:40:22.567Z,97415.78
2023-03-01T03:41:24.465Z,97423.63
2023-03-01T03:42:26.217Z,97416.63
2023-03-01T03:43:28.130Z,97415.69
2023-03-01T03:44:29.894Z,97418.13
2023-03-01T03:45:34.607Z,97413.00
2023-03-01T03:46:36.687Z,97407.19
2023-03-01T03:47:38.489Z,97406.50
2023-03-01T03:48:42.270Z,97408.94
2023-03-01T03:49:44.140Z,97408.56
2023-03-01T03:50:50.522Z,97413.59
2023-03-01T03:51:52.416Z,97404.94
2023-03-01T03:52:54.259Z,97406.44
2023-03-01T03:53:56.005Z,97406.22
2023-03-01T03:54:57.849Z,97408.41
2023-03-01T03:55:59.998Z,97406.81
2023-03-01T03:57:01.836Z,97403.28
2023-03-01T03:58:08.112Z,97402.59
2023-03-01T03:59:12.590Z,97405.41
2023-03-01T04:00:14.640Z,97400.28
2023-03-01T04:01:16.429Z,97405.41
2023-03-01T04:02:23.450Z,97401.69
2023-03-01T04:03:26.335Z,97401.44
2023-03-01T04:04:28.072Z,97399.56
2023-03-01T04:05:30.544Z,97400.25
2023-03-01T04:06:32.629Z,97401.75
2023-03-01T04:07:35.165Z,97402.59
2023-03-01T04:08:37.098Z,97396.63
2023-03-01T04:09:38.841Z,97387.44
2023-03-01T04:10:42.130Z,97396.88
2023-03-01T04:11:43.935Z,97394.31
2023-03-01T04:12:45.751Z,97395.00
2023-03-01T04:13:47.481Z,97390.09
2023-03-01T04:14:49.273Z,97391.44
2023-03-01T04:15:51.898Z,97395.03
2023-03-01T04:16:53.687Z,97397.25
2023-03-01T04:17:56.406Z,97393.19
2023-03-01T04:19:00.843Z,97391.69
2023-03-01T04:20:06.852Z,97393.31
2023-03-01T04:21:08.758Z,97389.34
2023-03-01T04:22:12.447Z,97398.44
2023-03-01T04:23:17.346Z,97389.56
2023-03-01T04:24:19.167Z,97390.16
2023-03-01T04:25:21.417Z,97398.53
2023-03-01T04:26:23.252Z,97399.47
2023-03-01T04:27:25.037Z,97398.44
2023-03-01T04:28:26.941Z,97388.97
2023-03-01T04:29:28.798Z,97392.25
2023-03-01T04:30:30.594Z,97397.38
2023-03-01T04:31:32.525Z,97403.78
2023-03-01T04:32:34.926Z,97403.78
2023-03-01T04:33:36.839Z,97397.72
2023-03-01T04:34:38.683Z,97395.88
2023-03-01T04:35:41.919Z,97397.38
2023-03-01T04:36:43.888Z,97399.81
2023-03-01T04:37:46.289Z,97397.38
2023-03-01T04:38:51.116Z,97404.00
2023-03-01T04:39:53.111Z,97400.03
2023-03-01T04:40:54.883Z,97397.72
2023-03-01T04:41:56.873Z,97401.91
2023-03-01T04:42:58.711Z,97394.47
2023-03-01T04:44:01.380Z,97395.41
2023-03-01T04:45:03.210Z,97404.72
2023-03-01T04:46:10.434Z,97399.72
2023-03-01T04:47:12.242Z,97412.41
2023-03-01T04:48:14.053Z,97412.97
2023-03-01T04:49:17.237Z,97406.66
2023-03-01T04:50:21.479Z,97413.31
2023-03-01T04:51:23.374Z,97412.16
2023-03-01T04:52:25.253Z,97412.63
2023-03-01T04:53:27.649Z,97414.75
2023-03-01T04:54:30.032Z,97412.91
2023-03-01T04:55:32.766Z,97414.28
2023-03-01T04:56:34.645Z,97408.91
2023-03-01T04:57:36.544Z,97404.94
2023-03-01T04:58:38.529Z,97402.88
2023-03-01T04:59:40.452Z,97404.63
2023-03-01T05:00:42.237Z,97401.69
2023-03-01T05:01:44.202Z,97401.31
2023-03-01T05:02:46.097Z,97404.47
2023-03-01T05:03:51.209Z,97401.91
2023-03-01T05:04:53.144Z,97406.91
2023-03-01T05:05:54.984Z,97406.56
2023-03-01T05:06:57.526Z,97411.69
2023-03-01T05:08:00.888Z,97415.31
2023-03-01T05:09:03.684Z,97421.34
2023-03-01T05:10:05.906Z,97417.88
2023-03-01T05:11:10.114Z,97420.31
2023-03-01T05:12:11.856Z,97426.00
2023-03-01T05:13:22.328Z,97422.41
2023-03-01T05:14:24.126Z,97426.69
2023-03-01T05:15:29.278Z,97423.31
2023-03-01T05:16:34.885Z,97420.53
2023-03-01T05:17:37.805Z,97422.84
2023-03-01T05:18:39.741Z,97428.66
2023-03-01T05:19:43.840Z,97421.91
2023-03-01T05:20:45.942Z,97418.41
2023-03-01T05:22:05.953Z,97412.34
2023-03-01T05:23:07.784Z,97419.25
2023-03-01T05:24:12.863Z,97419.47
2023-03-01T05:25:15.336Z,97418.78
2023-03-01T05:26:34.038Z,97417.66
2023-03-01T05:27:36.566Z,97419.16
2023-03-01T05:28:39.079Z,97417.19
2023-03-01T05:29:40.892Z,97418.94
2023-03-01T05:30:43.001Z,97420.34
2023-03-01T05:31:44.766Z,97417.09
2023-03-01T05:32:51.075Z,97411.88
2023-03-01T05:33:53.934Z,97418.94
2023-03-01T05:34:56.324Z,97406.81
2023-03-01T05:36:00.952Z,97411.03
2023-03-01T05:37:03.005Z,97416.84
2023-03-01T05:38:04.723Z,97416.63
2023-03-01T05:39:06.488Z,97418.03
2023-03-01T05:40:16.817Z,97407.50
2023-03-01T05:41:18.674Z,97411.03
2023-03-01T05:42:20.437Z,97411.84
2023-03-01T05:43:22.284Z,97412.63
2023-03-01T05:44:24.605Z,97414.97
2023-03-01T05:45:27.597Z,97413.81
2023-03-01T05:46:31.075Z,97415.88
2023-03-01T05:47:33.047Z,97410.06
2023-03-01T05:48:34.894Z,97411.56
2023-03-01T05:49:38.909Z,97413.06
2023-03-01T05:50:42.957Z,97416.59
2023-03-01T05:51:48.450Z,97412.97
2023-03-01T05:52:51.500Z,97412.84
2023-03-01T05:53:53.270Z,97410.41
2023-03-01T05:54:55.146Z,97406.31
2023-03-01T05:55:57.039Z,97409.59
2023-03-01T05:56:58.824Z,97402.44
2023-03-01T05:58:01.564Z,97408.84
2023-03-01T05:59:04.459Z,97408.03
2023-03-01T06:00:07.682Z,97410.59
2023-03-01T06:01:12.514Z,97401.84
2023-03-01T06:02:14.294Z,97406.97
2023-03-01T06:03:17.735Z,97410.50
2023-03-01T06:04:19.575Z,97412.34
2023-03-01T06:05:21.507Z,97413.97
2023-03-01T06:06:23.931Z,97410.38
2023-03-01T06:07:25.786Z,97407.44
2023-03-01T06:08:28.475Z,97413.00
2023-03-01T06:09:30.291Z,97417.44
2023-03-01T06:10:32.104Z,97413.63
2023-03-01T06:11:35.425Z,97420.97
2023-03-01T06:12:38.218Z,97420.44
2023-03-01T06:13:40.027Z,97419.16
2023-03-01T06:14:41.813Z,97412.97
2023-03-01T06:15:43.700Z,97415.41
2023-03-01T06:16:45.585Z,97409.69
2023-03-01T06:17:47.779Z,97409.22
2023-03-01T06:18:49.620Z,97413.41
2023-03-01T06:19:51.415Z,97414.22
2023-03-01T06:20:56.924Z,97411.56
2023-03-01T06:21:58.703Z,97419.78
2023-03-01T06:23:01.300Z,97421.88
2023-03-01T06:24:03.056Z,97427.59
2023-03-01T06:25:05.362Z,97436.66
2023-03-01T06:26:10.554Z,97420.91
2023-03-01T06:27:12.392Z,97428.25
2023-03-01T06:28:14.166Z,97429.28
2023-03-01T06:29:16.051Z,97430.81
2023-03-01T06:30:19.361Z,97436.63
2023-03-01T06:31:21.278Z,97434.66
2023-03-01T06:32:23.223Z,97434.91
2023-03-01T06:33:25.695Z,97438.84
2023-03-01T06:34:27.554Z,97437.66
2023-03-01T06:35:31.117Z,97439.91
2023-03-01T06:36:33.064Z,97436.53
2023-03-01T06:37:36.537Z,97437.34
2023-03-01T06:38:38.400Z,97430.94
2023-03-01T06:39:40.336Z,97434.47
2023-03-01T06:40:42.506Z,97436.78
2023-03-01T06:41:44.484Z,97434.22
2023-03-01T06:42:52.607Z,97435.66
2023-03-01T06:43:55.949Z,97428.66
2023-03-01T06:44:57.849Z,97435.97
2023-03-01T06:45:59.589Z,97438.66
2023-03-01T06:47:01.358Z,97436.13
2023-03-01T06:48:06.723Z,97441.03
2023-03-01T06:49:10.704Z,97440.13
2023-03-01T06:50:12.537Z,97442.91
2023-03-01T06:51:14.550Z,97438.75
2023-03-01T06:52:16.350Z,97445.69
2023-03-01T06:53:18.221Z,97444.31
2023-03-01T06:54:23.351Z,97439.88
2023-03-01T06:55:25.219Z,97439.28
2023-03-01T06:56:27.030Z,97445.00
2023-03-01T06:57:29.196Z,97446.13
2023-03-01T06:58:31.280Z,97442.16
2023-03-01T06:59:33.072Z,97446.91
2023-03-01T07:00:34.873Z,97450.97
2023-03-01T07:01:36.942Z,97449.25
2023-03-01T07:02:38.732Z,97442.38
2023-03-01T07:03:40.622Z,97447.59
2023-03-01T07:04:42.602Z,97442.16
2023-03-01T07:05:45.699Z,97442.16
2023-03-01T07:06:47.610Z,97441.09
2023-03-01T07:07:49.462Z,97441.69
2023-03-01T07:08:51.364Z,97444.25
2023-03-01T07:09:54.565Z,97449.38
2023-03-01T07:11:00.210Z,97447.28
2023-03-01T07:12:02.606Z,97444.88
2023-03-01T07:13:04.425Z,97443.03
2023-03-01T07:14:07.180Z,97448.16
2023-03-01T07:15:10.665Z,97443.50
2023-03-01T07:16:12.481Z,97434.66
2023-03-01T07:17:14.455Z,97439.66
2023-03-01T07:18:16.283Z,97446.19
2023-03-01T07:19:18.108Z,97446.38
2023-03-01T07:20:23.733Z,97449.44
2023-03-01T07:21:25.583Z,97441.16
2023-03-01T07:22:27.497Z,97437.31
2023-03-01T07:23:29.340Z,97440.34
2023-03-01T07:24:31.277Z,97441.47
2023-03-01T07:25:33.414Z,97434.25
2023-03-01T07:26:35.171Z,97436.56
2023-03-01T07:27:37.628Z,97430.75
2023-03-01T07:28:40.580Z,97438.31
2023-03-01T07:29:42.437Z,97430.03
2023-03-01T07:30:44.331Z,97432.34
2023-03-01T07:31:46.158Z,97426.41
2023-03-01T07:32:48.397Z,97425.72
2023-03-01T07:33:50.705Z,97433.03
2023-03-01T07:34:53.104Z,97432.31
2023-03-01T07:35:59.365Z,97435.19
2023-03-01T07:37:01.276Z,97425.38
2023-03-01T07:38:03.171Z,97421.25
2023-03-01T07:39:05.006Z,97419.84
2023-03-01T07:40:07.253Z,97427.03
2023-03-01T07:41:09.567Z,97427.72
2023-03-01T07:42:11.341Z,97417.69
2023-03-01T07:43:13.177Z,97425.50
2023-03-01T07:44:15.127Z,97424.97
2023-03-01T07:45:16.925Z,97423.91
2023-03-01T07:46:20.364Z,97421.22
2023-03-01T07:47:22.126Z,97414.13
2023-03-01T07:48:23.992Z,97417.72
2023-03-01T07:49:27.625Z,97417.56
2023-03-01T07:50:29.425Z,97419.44
2023-03-01T07:51:31.390Z,97412.19
2023-03-01T07:52:33.241Z,97416.97
2023-03-01T07:53:35.649Z,97405.81
2023-03-01T07:54:37.413Z,97412.16
2023-03-01T07:55:39.195Z,97406.94
2023-03-01T07:56:42.222Z,97408.50
2023-03-01T07:57:44.383Z,97404.69
2023-03-01T07:58:47.139Z,97404.69
2023-03-01T07:59:49.215Z,97406.56
2023-03-01T08:00:51.570Z,97408.66
2023-03-01T08:01:53.377Z,97410.56
2023-03-01T08:02:55.452Z,97403.13
2023-03-01T08:03:57.290Z,97400.09
2023-03-01T08:04:59.104Z,97410.03
2023-03-01T08:06:01.807Z,97404.69
2023-03-01T08:07:05.796Z,97402.84
2023-03-01T08:08:07.589Z,97398.97
2023-03-01T08:09:09.798Z,97399.38
2023-03-01T08:10:11.963Z,97403.88
2023-03-01T08:11:15.137Z,97395.66
2023-03-01T08:12:18.166Z,97396.47
2023-03-01T08:13:23.746Z,97397.41
2023-03-01T08:14:25.555Z,97397.00
2023-03-01T08:15:27.341Z,97393.63
2023-03-01T08:16:29.570Z,97387.31
2023-03-01T08:17:31.566Z,97390.84
2023-03-01T08:18:33.658Z,97391.81
2023-03-01T08:19:36.009Z,97388.06
2023-03-01T08:20:37.799Z,97395.47
2023-03-01T08:21:39.954Z,97392.66
2023-03-01T08:22:41.741Z,97394.72
2023-03-01T08:23:44.207Z,97396.44
2023-03-01T08:24:46.165Z,97390.38
2023-03-01T08:25:47.934Z,97387.41
2023-03-01T08:26:49.709Z,97395.38
2023-03-01T08:27:51.490Z,97391.75
2023-03-01T08:28:53.336Z,97387.28
2023-03-01T08:29:55.210Z,97384.72
2023-03-01T08:30:57.078Z,97383.06
2023-03-01T08:31:59.016Z,97388.38
2023-03-01T08:33:00.934Z,97389.03
2023-03-01T08:34:04.209Z,97387.44
2023-03-01T08:35:06.246Z,97381.63
2023-03-01T08:36:08.310Z,97383.13
2023-03-01T08:37:10.991Z,97379.72
2023-03-01T08:38:12.786Z,97377.97
2023-03-01T08:39:16.762Z,97380.25
2023-03-01T08:40:18.658Z,97378.78
2023-03-01T08:41:20.596Z,97379.84
2023-03-01T08:42:22.495Z,97377.00
2023-03-01T08:43:26.471Z,97379.16
2023-03-01T08:44:28.401Z,97376.09
2023-03-01T08:45:30.278Z,97371.06
2023-03-01T08:46:34.067Z,97371.44
2023-03-01T08:47:36.109Z,97370.38
2023-03-01T08:48:37.983Z,97368.75
2023-03-01T08:49:39.784Z,97369.44
2023-03-01T08:50:42.502Z,97369.56
2023-03-01T08:51:44.985Z,97363.59
2023-03-01T08:52:46.934Z,97361.03
2023-03-01T08:53:49.322Z,97358.72
2023-03-01T08:54:51.182Z,97350.31
2023-03-01T08:55:53.163Z,97358.44
2023-03-01T08:56:55.069Z,97358.16
2023-03-01T08:57:56.971Z,97358.56
2023-03-01T08:58:58.833Z,97359.38
2023-03-01T09:00:00.599Z,97360.34
2023-03-01T09:01:02.682Z,97353.56
2023-03-01T09:02:05.598Z,97352.22
2023-03-01T09:03:07.382Z,97355.88
2023-03-01T09:05:10.248Z,97356.78
2023-03-01T09:06:12.769Z,97348.94
2023-03-01T09:07:14.624Z,97351.09
2023-03-01T09:08:18.735Z,97341.75
2023-03-01T09:09:20.599Z,97341.59
2023-03-01T09:10:22.436Z,97337.78
2023-03-01T09:11:24.242Z,97338.19
2023-03-01T09:12:26.327Z,97341.56
2023-03-01T09:13:32.286Z,97335.56
2023-03-01T09:14:34.058Z,97340.41
2023-03-01T09:15:38.080Z,97331.19
2023-03-01T09:16:41.384Z,97337.94
2023-03-01T09:17:43.259Z,97331.19
2023-03-01T09:18:45.706Z,97331.50
2023-03-01T09:19:47.523Z,97329.47
2023-03-01T09:20:49.361Z,97334.94
2023-03-01T09:21:54.098Z,97332.19
2023-03-01T09:22:55.899Z,97331.91
2023-03-01T09:23:58.214Z,97334.91
2023-03-01T09:25:00.856Z,97329.97
2023-03-01T09:26:02.655Z,97327.50
2023-03-01T09:27:04.483Z,97328.41
2023-03-01T09:28:06.319Z,97323.22
2023-03-01T09:29:08.268Z,97321.53
2023-03-01T09:30:10.589Z,97318.00
2023-03-01T09:31:16.238Z,97315.88
2023-03-01T09:32:18.069Z,97314.75
2023-03-01T09:33:20.556Z,97315.09
2023-03-01T09:34:24.596Z,97311.28
2023-03-01T09:35:26.527Z,97311.34
2023-03-01T09:36:28.904Z,97316.88
2023-03-01T09:37:31.096Z,97304.34
2023-03-01T09:38:33.180Z,97307.38
2023-03-01T09:39:34.976Z,97309.69
2023-03-01T09:40:36.819Z,97307.34
2023-03-01T09:41:47.653Z,97306.44
2023-03-01T09:42:55.295Z,97302.00
2023-03-01T09:44:15.972Z,97309.22
2023-03-01T09:45:25.423Z,97308.09
2023-03-01T09:46:28.081Z,97305.56
2023-03-01T09:47:31.763Z,97301.75
2023-03-01T09:48:38.496Z,97304.22
2023-03-01T09:49:42.531Z,97304.91
2023-03-01T09:50:44.888Z,97299.31
2023-03-01T09:51:56.704Z,97306.16
2023-03-01T09:53:11.195Z,97296.13
2023-03-01T09:54:13.046Z,97297.28
2023-03-01T09:55:16.451Z,97294.88
2023-03-01T09:56:22.667Z,97292.63
2023-03-01T09:57:30.239Z,97295.88
2023-03-01T09:59:07.554Z,97300.44
2023-03-01T10:00:09.490Z,97299.81
2023-03-01T10:01:14.107Z,97291.75
2023-03-01T10:02:28.731Z,97289.81
2023-03-01T10:03:38.426Z,97290.47
2023-03-01T10:04:48.325Z,97285.94
2023-03-01T10:05:50.225Z,97291.91
2023-03-01T10:07:10.651Z,97280.94
2023-03-01T10:08:12.384Z,97290.81
2023-03-01T10:09:17.298Z,97272.66
2023-03-01T10:10:27.553Z,97271.50
2023-03-01T10:11:34.037Z,97268.72
2023-03-01T10:12:38.877Z,97271.78
2023-03-01T10:13:50.428Z,97255.72
2023-03-01T10:15:11.907Z,97261.00
2023-03-01T10:16:16.274Z,97261.00
2023-03-01T10:17:20.938Z,97260.97
2023-03-01T10:18:24.804Z,97256.06
2023-03-01T10:19:32.647Z,97260.38
2023-03-01T10:20:38.968Z,97261.31
2023-03-01T10:21:44.294Z,97252.41
2023-03-01T10:22:52.412Z,97247.81
2023-03-01T10:23:54.926Z,97246.28
2023-03-01T10:24:58.688Z,97247.28
2023-03-01T10:26:07.772Z,97245.41
2023-03-01T10:27:18.353Z,97238.63
2023-03-01T10:28:52.690Z,97241.03
2023-03-01T10:30:26.732Z,97242.25
2023-03-01T10:31:41.751Z,97231.00
2023-03-01T10:32:44.601Z,97229.19
2023-03-01T10:33:46.321Z,97234.84
2023-03-01T10:34:49.235Z,97227.50
2023-03-01T10:35:51.355Z,97235.66
2023-03-01T10:36:54.790Z,97234.75
2023-03-01T10:37:59.480Z,97230.91
2023-03-01T10:39:05.168Z,97224.94
2023-03-01T10:40:10.539Z,97225.88
2023-03-01T10:41:13.334Z,97231.63
2023-03-01T10:42:21.302Z,97224.97
2023-03-01T10:43:23.468Z,97229.72
2023-03-01T10:44:48.472Z,97224.06
2023-03-01T10:45:50.393Z,97220.91
2023-03-01T10:47:01.240Z,97217.16
2023-03-01T10:48:07.491Z,97212.69
2023-03-01T10:49:20.107Z,97208.72
2023-03-01T10:50:23.882Z,97211.59
2023-03-01T10:51:25.749Z,97210.69
2023-03-01T10:52:29.424Z,97209.75
2023-03-01T10:53:53.018Z,97206.69
2023-03-01T10:54:57.222Z,97205.06
2023-03-01T10:56:12.063Z,97206.47
2023-03-01T10:57:29.283Z,97196.81
2023-03-01T10:58:31.748Z,97193.28
2023-03-01T10:59:33.571Z,97188.06
2023-03-01T11:00:47.363Z,97179.69
2023-03-01T11:02:05.187Z,97181.00
2023-03-01T11:03:13.599Z,97177.34
2023-03-01T11:04:15.630Z,97173.53
2023-03-01T11:05:20.727Z,97172.56
2023-03-01T11:06:23.470Z,97168.03
2023-03-01T11:07:25.505Z,97166.72
2023-03-01T11:08:35.156Z,97159.13
2023-03-01T11:09:39.678Z,97160.16
2023-03-01T11:10:41.524Z,97155.84
2023-03-01T11:11:43.335Z,97152.28
2023-03-01T11:12:45.125Z,97147.44
2023-03-01T11:13:52.969Z,97154.72
2023-03-01T11:14:56.010Z,97150.19
2023-03-01T11:16:01.773Z,97149.16
2023-03-01T11:17:13.952Z,97153.59
2023-03-01T11:18:31.072Z,97150.59
2023-03-01T11:19:38.976Z,97146.38
2023-03-01T11:20:40.910Z,97144.59
2023-03-01T11:21:45.558Z,97133.00
2023-03-01T11:23:10.644Z,97140.03
2023-03-01T11:24:14.202Z,97135.63
2023-03-01T11:25:16.491Z,97129.38
2023-03-01T11:26:18.751Z,97134.41
2023-03-01T11:27:32.151Z,97124.72
2023-03-01T11:28:35.393Z,97127.53
2023-03-01T11:29:48.479Z,97135.59
2023-03-01T11:31:08.237Z,97133.19
2023-03-01T11:32:14.703Z,97132.34
2023-03-01T11:33:34.871Z,97126.94
2023-03-01T11:34:40.773Z,97129.16
2023-03-01T11:35:55.978Z,97123.53
2023-03-01T11:37:01.343Z,97124.94
2023-03-01T11:38:03.154Z,97127.94
2023-03-01T11:39:20.192Z,97131.13
2023-03-01T11:40:27.411Z,97123.25
2023-03-01T11:41:32.669Z,97119.78
2023-03-01T11:42:53.296Z,97124.00
2023-03-01T11:44:02.603Z,97114.56
2023-03-01T11:45:08.662Z,97118.78
2023-03-01T11:46:22.522Z,97112.94
2023-03-01T11:47:27.469Z,97107.66
2023-03-01T11:48:50.144Z,97102.72
2023-03-01T11:50:03.485Z,97103.50
2023-03-01T11:51:10.367Z,97099.09
2023-03-01T11:52:17.830Z,97109.16
2023-03-01T11:53:36.088Z,97105.47
2023-03-01T11:54:53.117Z,97104.19
2023-03-01T11:55:54.844Z,97103.94
2023-03-01T11:56:59.238Z,97103.41
2023-03-01T11:58:07.207Z,97100.13
2023-03-01T11:59:22.930Z,97102.50
2023-03-01T12:00:39.720Z,97105.72
2023-03-01T12:01:48.023Z,97096.38
2023-03-01T12:03:08.316Z,97100.19
2023-03-01T12:04:38.607Z,97099.72
2023-03-01T12:06:04.720Z,97093.63
2023-03-01T12:07:12.479Z,97088.34
2023-03-01T12:08:33.003Z,97082.03
2023-03-01T12:09:34.778Z,97088.25
2023-03-01T12:10:59.436Z,97082.72
2023-03-01T12:12:20.008Z,97081.38
2023-03-01T12:13:40.328Z,97075.38
2023-03-01T12:14:42.134Z,97081.28
2023-03-01T12:16:05.024Z,97081.31
2023-03-01T12:17:15.954Z,97072.78
2023-03-01T12:18:36.358Z,97069.63
2023-03-01T12:19:47.365Z,97070.88
2023-03-01T12:21:08.038Z,97076.09
2023-03-01T12:22:09.799Z,97068.44
2023-03-01T12:23:27.030Z,97063.91
2023-03-01T12:24:31.971Z,97063.09
2023-03-01T12:25:57.086Z,97064.84
2023-03-01T12:27:22.216Z,97071.25
2023-03-01T12:28:46.881Z,97071.59
2023-03-01T12:30:10.964Z,97064.75
2023-03-01T12:31:35.953Z,97066.44
2023-03-01T12:32:50.378Z,97061.06
2023-03-01T12:34:10.856Z,97059.34
2023-03-01T12:35:22.440Z,97051.56
2023-03-01T12:36:47.616Z,97068.03
2023-03-01T12:38:07.663Z,97060.69
2023-03-01T12:39:09.444Z,97053.03